Chatelet, Belgium
Current Conditions -  °F | °C
As of 4:20 AM on Saturday 25 Oct 2014 (Local Time) from EBCI Reporting Station
Broken Clouds Broken Clouds  
Wind Chill: 52°   Ceiling: 800
Heat Index: 52°   Visibility: 5mi
Dew Point: 50°   Wind: 12mph
Humidity: 94%   Direction: 210°SSW
Pressure: 30.03"   Gusts: NA
Location:  50.4°N, 4.53°E
Report Text: EBCI 250220Z 21010KT 8000 SCT005 BKN008 11/10 Q1017 NOSIG
Loading
Personal Weather Stations






























Interactive Weather Map
Tropical Storm Tracking
New forecast layout! Learn more

10-Day Weather Forecast

Advertisements
Track Severe Weather on mobile